Time;durP1;ratioP1;P1;durP2;ratioP2;P2;SDS_P1;SDS_P2;PMS_P1;PMS_P2;Temp;Humidity;BMP_temperature;BMP_pressure;BME280_temperature;BME280_humidity;BME280_pressure;Samples;Min_cycle;Max_cycle;Signal;HPM_P1;HPM_P2
2022/12/31 07:06:30;;;;;;;1.07;0.40;;;;;;;;;;10624413;27;2302447;-85
2022/12/31 07:12:10;;;;;;;3.08;0.60;;;;;;;;;;10687951;27;20098;-84
2022/12/31 07:17:29;;;;;;;2.45;0.50;;;;;;;;;;10500714;22;20053;-81
2022/12/31 07:22:31;;;;;;;0.40;0.30;;;;;;;;;;10499836;28;20146;-80
2022/12/31 07:27:33;;;;;;;;;;;;;;;;;;10525500;28;20479;-81
2022/12/31 07:32:57;;;;;;;1.15;0.50;;;;;;;;;;10544512;28;19908;-82
2022/12/31 07:38:04;;;;;;;1.15;0.55;;;;;;;;;;10542866;28;20036;-81
2022/12/31 07:43:24;;;;;;;2.05;0.85;;;;;;;;;;10543515;28;20096;-81
2022/12/31 07:48:26;;;;;;;1.70;0.50;;;;;;;;;;10542776;28;20032;-81
2022/12/31 07:53:28;;;;;;;1.20;0.50;;;;;;;;;;10543606;28;20464;-81
2022/12/31 07:58:44;;;;;;;2.55;2.03;;;;;;;;;;10543462;28;20024;-81
2022/12/31 08:04:01;;;;;;;1.60;0.60;;;;;;;;;;10537000;28;20388;-82
2022/12/31 08:09:08;;;;;;;0.70;0.40;;;;;;;;;;10514651;28;20028;-80
2022/12/31 08:14:11;;;;;;;2.88;0.60;;;;;;;;;;10515691;28;20024;-80
2022/12/31 08:19:26;;;;;;;2.88;0.60;;;;;;;;;;10511578;28;20032;-80
2022/12/31 08:24:45;;;;;;;2.95;0.60;;;;;;;;;;10524334;28;20024;-79
2022/12/31 08:29:57;;;;;;;1.58;0.50;;;;;;;;;;10529096;28;20104;-79
2022/12/31 08:35:01;;;;;;;1.65;0.60;;;;;;;;;;10527717;28;20563;-79
2022/12/31 08:40:10;;;;;;;2.08;0.65;;;;;;;;;;10531553;28;20036;-78
2022/12/31 08:45:14;;;;;;;4.20;0.95;;;;;;;;;;10525172;28;20476;-79
2022/12/31 08:50:17;;;;;;;3.40;0.80;;;;;;;;;;10522917;28;20021;-79
2022/12/31 08:55:18;;;;;;;2.03;0.90;;;;;;;;;;10516059;28;20028;-79
2022/12/31 09:00:20;;;;;;;5.22;2.70;;;;;;;;;;10511656;28;20025;-79
2022/12/31 09:05:24;;;;;;;3.97;1.52;;;;;;;;;;10516786;28;20031;-80
2022/12/31 09:10:57;;;;;;;3.33;1.30;;;;;;;;;;10511179;28;20021;-80
2022/12/31 09:16:05;;;;;;;4.38;2.67;;;;;;;;;;10464994;28;20044;-79
2022/12/31 09:21:08;;;;;;;3.88;1.88;;;;;;;;;;10510114;28;20024;-80
2022/12/31 09:26:28;;;;;;;3.10;1.65;;;;;;;;;;10524894;28;20055;-79
2022/12/31 09:31:40;;;;;;;2.50;1.63;;;;;;;;;;10529812;28;20024;-78
2022/12/31 09:36:56;;;;;;;2.70;1.23;;;;;;;;;;10508162;28;20031;-79
2022/12/31 09:42:16;;;;;;;2.22;1.40;;;;;;;;;;10511545;28;20028;-77
2022/12/31 09:47:33;;;;;;;4.13;1.38;;;;;;;;;;10511015;28;20052;-80
2022/12/31 09:52:52;;;;;;;5.50;2.97;;;;;;;;;;10504555;28;20031;-78
2022/12/31 09:58:01;;;;;;;2.50;1.33;;;;;;;;;;10514193;28;20074;-80
2022/12/31 10:03:11;;;;;;;1.90;0.90;;;;;;;;;;10502199;28;20052;-80
2022/12/31 10:08:24;;;;;;;3.50;1.20;;;;;;;;;;10501268;28;20533;-81
2022/12/31 10:13:40;;;;;;;3.30;1.60;;;;;;;;;;10502422;28;20032;-79
2022/12/31 10:18:59;;;;;;;3.33;1.42;;;;;;;;;;10501662;28;20044;-80
2022/12/31 10:24:12;;;;;;;7.32;4.93;;;;;;;;;;10505727;28;20427;-79
2022/12/31 10:29:32;;;;;;;3.10;1.30;;;;;;;;;;10507940;28;20028;-80
2022/12/31 10:34:52;;;;;;;2.58;1.40;;;;;;;;;;10507748;28;20119;-79
2022/12/31 10:39:53;;;;;;;11.20;6.88;;;;;;;;;;10506536;28;20052;-80
2022/12/31 10:44:54;;;;;;;;;;;;;;;;;;10506299;28;20028;-80
2022/12/31 10:50:18;;;;;;;6.38;2.83;;;;;;;;;;10507816;28;19965;-80
2022/12/31 10:55:24;;;;;;;6.10;2.22;;;;;;;;;;10504938;28;20098;-81
2022/12/31 11:00:29;;;;;;;4.43;2.78;;;;;;;;;;10505291;28;20059;-81
2022/12/31 11:05:42;;;;;;;14.98;9.25;;;;;;;;;;10505598;28;20028;-80
2022/12/31 11:10:53;;;;;;;3.05;1.60;;;;;;;;;;10505615;28;20048;-80
2022/12/31 11:16:14;;;;;;;5.38;2.58;;;;;;;;;;10505523;28;20044;-79
2022/12/31 11:21:34;;;;;;;2.90;1.17;;;;;;;;;;10503744;28;20112;-81
2022/12/31 11:26:46;;;;;;;5.65;1.50;;;;;;;;;;10503865;28;20446;-79
2022/12/31 11:31:53;;;;;;;3.55;1.52;;;;;;;;;;10499708;28;20032;-79
2022/12/31 11:37:13;;;;;;;2.83;1.13;;;;;;;;;;10501909;28;20442;-79
2022/12/31 11:42:39;;;;;;;3.83;1.10;;;;;;;;;;10509036;28;20029;-79
2022/12/31 11:47:43;;;;;;;2.47;1.60;;;;;;;;;;10508897;28;20488;-79
2022/12/31 11:52:54;;;;;;;2.50;1.20;;;;;;;;;;10517071;28;20171;-80
2022/12/31 11:57:58;;;;;;;3.47;1.63;;;;;;;;;;10524366;28;20052;-80
2022/12/31 12:03:01;;;;;;;3.42;1.48;;;;;;;;;;10515771;28;20028;-80
2022/12/31 12:08:02;;;;;;;3.10;1.20;;;;;;;;;;10512080;28;20116;-80
2022/12/31 12:13:12;;;;;;;4.93;1.45;;;;;;;;;;10509948;28;20032;-81
2022/12/31 12:18:27;;;;;;;4.53;1.15;;;;;;;;;;10509533;28;20442;-80
2022/12/31 12:23:28;;;;;;;2.78;1.00;;;;;;;;;;10516391;28;20031;-79
2022/12/31 12:28:29;;;;;;;;;;;;;;;;;;10525696;28;20024;-79
2022/12/31 12:33:40;;;;;;;3.00;1.40;;;;;;;;;;10514354;28;20334;-80
2022/12/31 12:38:41;;;;;;;;;;;;;;;;;;10509705;28;20485;-80
2022/12/31 12:43:42;;;;;;;4.78;1.17;;;;;;;;;;10512876;28;19953;-80
2022/12/31 12:48:43;;;;;;;;;;;;;;;;;;10508057;28;20056;-80
2022/12/31 12:54:07;;;;;;;3.58;1.30;;;;;;;;;;10509631;28;19909;-80
2022/12/31 12:59:27;;;;;;;5.20;1.58;;;;;;;;;;10484502;28;20029;-81
2022/12/31 13:04:41;;;;;;;3.33;1.50;;;;;;;;;;10506760;28;20043;-80
2022/12/31 13:10:00;;;;;;;4.28;1.23;;;;;;;;;;10507537;28;20024;-80
2022/12/31 13:20:40;;;;;;;2.65;1.58;;;;;;;;;;10516100;28;20036;-87
2022/12/31 13:25:55;;;;;;;4.03;1.60;;;;;;;;;;10505207;28;20123;-88
2022/12/31 13:30:59;;;;;;;3.25;1.27;;;;;;;;;;10544340;28;20031;-84
2022/12/31 13:36:14;;;;;;;3.28;1.40;;;;;;;;;;10571047;28;20011;-84
2022/12/31 13:41:18;;;;;;;3.47;1.23;;;;;;;;;;10586009;28;20028;-85
2022/12/31 13:46:23;;;;;;;3.70;1.23;;;;;;;;;;10581149;28;20063;-84
2022/12/31 13:51:39;;;;;;;2.35;1.05;;;;;;;;;;10555997;28;20081;-85
2022/12/31 13:56:45;;;;;;;2.50;1.38;;;;;;;;;;10533798;28;20081;-86
2022/12/31 14:01:55;;;;;;;3.97;1.50;;;;;;;;;;10529237;28;20122;-86
2022/12/31 14:06:59;;;;;;;6.47;1.58;;;;;;;;;;10529895;28;20050;-86
2022/12/31 14:12:19;;;;;;;3.40;1.27;;;;;;;;;;10532798;28;20173;-86
2022/12/31 14:17:26;;;;;;;5.03;3.30;;;;;;;;;;10529174;28;20494;-87
2022/12/31 14:22:42;;;;;;;4.80;2.10;;;;;;;;;;10527249;28;20109;-87
2022/12/31 14:27:45;;;;;;;2.75;1.50;;;;;;;;;;10540852;28;20084;-88
2022/12/31 14:32:57;;;;;;;4.60;1.40;;;;;;;;;;10532262;28;20028;-87
2022/12/31 14:38:14;;;;;;;3.70;1.48;;;;;;;;;;10529811;28;20093;-86
2022/12/31 14:43:34;;;;;;;4.35;2.10;;;;;;;;;;10531752;28;20036;-85
2022/12/31 14:48:39;;;;;;;4.47;1.70;;;;;;;;;;10532565;28;20055;-87
2022/12/31 14:53:50;;;;;;;5.70;1.73;;;;;;;;;;10533915;28;20039;-86
2022/12/31 14:58:59;;;;;;;5.80;2.25;;;;;;;;;;10552689;28;20050;-86
2022/12/31 15:04:00;;;;;;;4.65;1.75;;;;;;;;;;10533902;28;20032;-88
2022/12/31 15:09:28;;;;;;;5.63;1.33;;;;;;;;;;10537780;28;20009;-84
2022/12/31 15:14:35;;;;;;;3.60;1.40;;;;;;;;;;10575584;28;20036;-86
2022/12/31 15:19:57;;;;;;;3.28;1.38;;;;;;;;;;10537651;28;20032;-88
2022/12/31 15:24:59;;;;;;;3.45;1.58;;;;;;;;;;10487630;28;20054;-87
2022/12/31 15:30:01;;;;;;;3.42;1.33;;;;;;;;;;10539300;28;20024;-88
2022/12/31 15:35:20;;;;;;;3.80;1.38;;;;;;;;;;10535202;28;20027;-87
2022/12/31 15:40:28;;;;;;;5.07;2.35;;;;;;;;;;10536231;28;20027;-87
2022/12/31 15:45:36;;;;;;;4.85;1.80;;;;;;;;;;10537506;28;20026;-88
2022/12/31 15:50:38;;;;;;;4.15;1.67;;;;;;;;;;10536955;28;20498;-86
2022/12/31 15:55:43;;;;;;;2.70;1.40;;;;;;;;;;10538261;28;20028;-88
2022/12/31 16:00:59;;;;;;;3.45;1.80;;;;;;;;;;10558292;28;20348;-88
2022/12/31 16:06:02;;;;;;;4.63;2.13;;;;;;;;;;10533365;28;20024;-87
2022/12/31 16:11:04;;;;;;;3.67;1.73;;;;;;;;;;10534925;28;20084;-87
2022/12/31 16:16:07;;;;;;;4.30;1.50;;;;;;;;;;10535845;28;20032;-88
2022/12/31 16:21:25;;;;;;;2.53;1.38;;;;;;;;;;10539574;28;20051;-86
2022/12/31 16:26:31;;;;;;;3.20;1.73;;;;;;;;;;10538845;28;20092;-87
2022/12/31 16:31:32;;;;;;;4.10;1.77;;;;;;;;;;10536126;28;20035;-87
2022/12/31 16:36:34;;;;;;;;;;;;;;;;;;10537387;28;20091;-87
2022/12/31 16:41:43;;;;;;;3.75;1.85;;;;;;;;;;10536604;28;19979;-87
2022/12/31 16:46:44;;;;;;;2.67;1.70;;;;;;;;;;10535347;28;20411;-86
2022/12/31 16:51:45;;;;;;;2.67;1.40;;;;;;;;;;10535808;28;20072;-85
2022/12/31 16:56:46;;;;;;;3.35;1.80;;;;;;;;;;10536155;28;20032;-85
2022/12/31 17:01:48;;;;;;;4.20;1.63;;;;;;;;;;10533938;28;20394;-86
2022/12/31 17:06:49;;;;;;;5.03;2.40;;;;;;;;;;10533878;28;20020;-85
2022/12/31 17:11:54;;;;;;;2.10;1.50;;;;;;;;;;10538139;28;20479;-85
2022/12/31 17:16:55;;;;;;;3.60;1.55;;;;;;;;;;10535855;28;20028;-85
2022/12/31 17:21:56;;;;;;;;;;;;;;;;;;10539014;28;20388;-85
2022/12/31 17:27:03;;;;;;;5.07;2.58;;;;;;;;;;10539461;28;19908;-86
2022/12/31 17:32:06;;;;;;;3.55;2.03;;;;;;;;;;10551525;28;20056;-85
2022/12/31 17:37:07;;;;;;;3.67;1.60;;;;;;;;;;10545874;28;20020;-84
2022/12/31 17:42:09;;;;;;;;;;;;;;;;;;10559789;28;20040;-85
2022/12/31 17:47:12;;;;;;;3.95;2.28;;;;;;;;;;10546792;28;20424;-85
2022/12/31 17:52:14;;;;;;;4.72;2.00;;;;;;;;;;10537899;28;20031;-84
2022/12/31 17:57:35;;;;;;;4.78;2.00;;;;;;;;;;10534833;28;20475;-85
2022/12/31 18:02:37;;;;;;;4.93;2.00;;;;;;;;;;10536425;28;20020;-86
2022/12/31 18:07:38;;;;;;;4.45;1.95;;;;;;;;;;10534100;28;20035;-86
2022/12/31 18:12:39;;;;;;;;;;;;;;;;;;10538119;28;20030;-87
2022/12/31 18:17:40;;;;;;;3.83;2.10;;;;;;;;;;10506935;28;19938;-87
2022/12/31 18:22:41;;;;;;;;;;;;;;;;;;10491645;28;20495;-86
2022/12/31 18:27:42;;;;;;;4.28;2.00;;;;;;;;;;10490000;28;19911;-85
2022/12/31 18:32:43;;;;;;;;;;;;;;;;;;10492230;28;20032;-87
2022/12/31 18:37:45;;;;;;;3.92;1.88;;;;;;;;;;10489683;28;19905;-87
2022/12/31 18:42:46;;;;;;;4.05;2.00;;;;;;;;;;10488226;28;20446;-87
2022/12/31 18:47:46;;;;;;;;;;;;;;;;;;10509304;28;20051;-86
2022/12/31 18:52:47;;;;;;;5.80;2.47;;;;;;;;;;10492168;28;19930;-86
2022/12/31 18:57:48;;;;;;;;;;;;;;;;;;10491117;28;20078;-86
2022/12/31 19:02:49;;;;;;;6.80;2.70;;;;;;;;;;10489550;28;19908;-87
2022/12/31 19:07:50;;;;;;;;;;;;;;;;;;10497834;28;20094;-86
2022/12/31 19:12:52;;;;;;;3.63;2.00;;;;;;;;;;10499231;28;19995;-85
2022/12/31 19:17:53;;;;;;;4.30;1.98;;;;;;;;;;10501406;22;20531;-84
2022/12/31 19:22:55;;;;;;;5.65;2.05;;;;;;;;;;10487696;28;20036;-84
2022/12/31 19:27:56;;;;;;;3.70;2.10;;;;;;;;;;10512678;28;20074;-84
2022/12/31 19:32:56;;;;;;;;;;;;;;;;;;10548083;28;20079;-84
2022/12/31 19:37:58;;;;;;;5.05;2.35;;;;;;;;;;10529609;28;19908;-85
2022/12/31 19:43:05;;;;;;;4.82;1.80;;;;;;;;;;10530293;28;20039;-85
2022/12/31 19:48:09;;;;;;;6.18;2.45;;;;;;;;;;10529981;28;20553;-84
2022/12/31 19:53:11;;;;;;;6.13;2.83;;;;;;;;;;10528091;28;20034;-84
2022/12/31 19:58:19;;;;;;;18.25;7.85;;;;;;;;;;10531800;28;20035;-85
2022/12/31 20:03:21;;;;;;;5.75;2.75;;;;;;;;;;10535732;28;20031;-85
2022/12/31 20:08:22;;;;;;;6.57;2.55;;;;;;;;;;10537684;28;20387;-84
2022/12/31 20:13:26;;;;;;;;;;;;;;;;;;10540460;28;20048;-85
2022/12/31 20:18:27;;;;;;;7.07;4.03;;;;;;;;;;10540826;28;19978;-85
